Time;durP1;ratioP1;P1;durP2;ratioP2;P2;SDS_P1;SDS_P2;PMS_P1;PMS_P2;Temp;Humidity;BMP_temperature;BMP_pressure;BME280_temperature;BME280_humidity;BME280_pressure;Samples;Min_cycle;Max_cycle;Signal;HPM_P1;HPM_P2
2023/07/05 00:00:35;;;;;;;;;10.75;10.25;28.00;53.60;;;;;;111371;1238;49427;-64
2023/07/05 00:03:22;;;;;;;;;9.75;9.00;28.00;53.60;;;;;;111619;1238;50145;-63
2023/07/05 00:05:49;;;;;;;;;11.50;11.00;28.00;53.60;;;;;;111501;1241;54184;-62
2023/07/05 00:08:16;;;;;;;;;12.00;11.00;28.00;53.60;;;;;;111412;1241;45662;-64
2023/07/05 00:10:43;;;;;;;;;11.25;10.25;28.00;53.60;;;;;;111467;1238;50136;-63
2023/07/05 00:13:10;;;;;;;;;10.67;10.00;28.00;53.60;;;;;;111397;1238;50132;-63
2023/07/05 00:15:38;;;;;;;;;12.75;10.75;28.00;53.60;;;;;;111521;1242;53971;-64
2023/07/05 00:18:05;;;;;;;;;12.25;11.00;28.00;53.60;;;;;;111676;1238;44616;-63
2023/07/05 00:20:32;;;;;;;;;10.75;10.00;28.00;53.80;;;;;;111681;1241;49677;-65
2023/07/05 00:22:59;;;;;;;;;11.25;10.50;28.00;53.60;;;;;;111592;1238;50846;-63
2023/07/05 00:25:26;;;;;;;;;12.00;11.50;28.00;53.60;;;;;;111560;1238;54442;-62
2023/07/05 00:27:53;;;;;;;;;11.25;10.50;27.90;53.60;;;;;;111675;1241;44508;-64
2023/07/05 00:30:20;;;;;;;;;11.00;10.25;27.90;53.60;;;;;;111554;1238;49912;-65
2023/07/05 00:32:46;;;;;;;;;11.75;10.75;27.90;53.60;;;;;;111691;1238;49557;-63
2023/07/05 00:35:14;;;;;;;;;10.25;9.25;27.90;53.60;;;;;;111671;1238;54056;-65
2023/07/05 00:37:41;;;;;;;;;13.00;12.00;27.90;53.70;;;;;;111525;1238;45048;-64
2023/07/05 00:40:08;;;;;;;;;12.67;11.33;27.90;53.60;;;;;;111493;1238;49514;-64
2023/07/05 00:42:35;;;;;;;;;12.25;10.00;27.90;53.60;;;;;;111686;1238;50266;-62
2023/07/05 00:45:31;;;;;;;;;11.00;10.00;27.90;53.60;;;;;;111633;1238;54312;-64
2023/07/05 00:47:58;;;;;;;;;10.25;9.75;27.90;53.60;;;;;;111665;1239;44327;-64
2023/07/05 00:50:31;;;;;;;;;10.00;9.75;27.90;53.80;;;;;;111274;1243;49773;-64
2023/07/05 00:52:58;;;;;;;;;10.00;9.50;27.90;53.60;;;;;;111572;1243;49777;-64
2023/07/05 00:55:27;;;;;;;;;9.00;8.25;27.90;53.60;;;;;;111610;1242;54949;-65
2023/07/05 00:57:54;;;;;;;;;11.50;9.75;27.90;53.60;;;;;;111302;1240;44450;-63
2023/07/05 01:00:22;;;;;;;;;13.00;11.00;27.90;53.70;;;;;;111459;1243;48839;-65
2023/07/05 01:02:55;;;;;;;;;10.00;9.33;27.80;53.50;;;;;;111667;1238;49146;-65
2023/07/05 01:05:24;;;;;;;;;10.00;9.33;27.90;53.60;;;;;;111666;1238;53944;-64
2023/07/05 01:07:51;;;;;;;;;10.67;9.67;27.80;53.50;;;;;;111635;1237;45440;-65
2023/07/05 01:10:20;;;;;;;;;9.75;9.25;27.90;53.60;;;;;;111630;1239;49336;-65
2023/07/05 01:13:11;;;;;;;;;10.25;10.00;27.80;53.50;;;;;;111497;1241;50708;-62
2023/07/05 01:15:50;;;;;;;;;10.00;9.25;27.80;53.50;;;;;;111480;1241;53738;-63
2023/07/05 01:18:37;;;;;;;;;9.50;9.00;27.80;53.50;;;;;;111507;1241;44411;-62
2023/07/05 01:21:31;;;;;;;;;11.00;10.50;27.80;53.50;;;;;;111481;1242;49610;-63
2023/07/05 01:24:25;;;;;;;;;10.00;9.00;27.80;53.50;;;;;;111646;1238;49141;-65
2023/07/05 01:27:01;;;;;;;;;9.00;8.25;27.80;53.50;;;;;;111176;1243;54027;-63
2023/07/05 01:29:50;;;;;;;;;10.75;10.00;27.80;53.50;;;;;;111517;1241;45104;-63
2023/07/05 01:32:29;;;;;;;;;9.25;8.75;27.80;53.40;;;;;;111622;1238;49826;-63
2023/07/05 01:35:10;;;;;;;;;9.00;8.00;27.80;53.50;;;;;;111625;1241;49962;-63
2023/07/05 01:37:41;;;;;;;;;10.50;10.00;27.80;53.50;;;;;;111423;1242;53639;-63
2023/07/05 01:40:20;;;;;;;;;11.00;10.00;27.80;53.70;;;;;;111501;1238;45091;-62
2023/07/05 01:42:50;;;;;;;;;10.25;10.25;27.80;53.50;;;;;;111492;1237;49179;-63
2023/07/05 01:45:19;;;;;;;;;12.00;11.50;27.70;53.40;;;;;;111653;1239;50260;-64
2023/07/05 01:47:53;;;;;;;;;11.00;11.00;27.70;53.50;;;;;;111550;1238;53763;-64
2023/07/05 01:50:34;;;;;;;;;11.00;10.00;27.80;53.50;;;;;;111713;1241;44317;-63
2023/07/05 01:53:18;;;;;;;;;10.67;9.33;27.80;53.50;;;;;;111343;1238;49306;-62
2023/07/05 01:55:52;;;;;;;;;12.25;11.75;27.80;53.50;;;;;;111239;1244;50458;-65
2023/07/05 01:58:22;;;;;;;;;10.33;9.33;27.70;53.50;;;;;;111565;1238;53893;-64
2023/07/05 02:00:51;;;;;;;;;10.25;9.25;27.80;53.50;;;;;;111191;1238;44650;-67
2023/07/05 02:03:20;;;;;;;;;11.50;10.75;27.70;53.60;;;;;;111619;1241;49752;-65
2023/07/05 02:05:48;;;;;;;;;11.00;10.00;27.70;53.40;;;;;;111504;1241;49740;-65
2023/07/05 02:08:15;;;;;;;;;12.75;11.00;27.70;53.50;;;;;;111446;1238;53671;-63
2023/07/05 02:10:42;;;;;;;;;9.00;8.00;27.70;53.40;;;;;;111514;1238;45108;-64
2023/07/05 02:13:11;;;;;;;;;12.00;10.75;27.70;53.40;;;;;;111415;1238;49354;-65
2023/07/05 02:15:38;;;;;;;;;10.00;9.00;27.70;53.40;;;;;;111117;1238;49449;-64
2023/07/05 02:18:07;;;;;;;;;11.50;10.00;27.70;53.50;;;;;;111482;1241;53143;-65
2023/07/05 02:20:35;;;;;;;;;11.00;10.00;27.70;53.50;;;;;;111691;1243;44155;-63
2023/07/05 02:23:02;;;;;;;;;10.00;8.50;27.70;53.70;;;;;;111280;1243;49332;-62
2023/07/05 02:25:31;;;;;;;;;11.50;9.75;27.70;53.50;;;;;;111309;1238;49748;-63
2023/07/05 02:27:58;;;;;;;;;11.33;10.33;27.70;53.50;;;;;;111501;1241;54585;-63
2023/07/05 02:30:26;;;;;;;;;10.75;9.75;27.70;53.50;;;;;;111655;1241;44653;-65
2023/07/05 02:32:53;;;;;;;;;10.75;9.75;27.60;53.60;;;;;;111507;1238;49043;-64
2023/07/05 02:35:20;;;;;;;;;11.75;10.50;27.60;53.40;;;;;;111454;1238;49627;-64
2023/07/05 02:37:47;;;;;;;;;10.33;10.33;27.60;53.40;;;;;;111669;1237;53455;-63
2023/07/05 02:40:14;;;;;;;;;10.00;9.67;27.60;53.60;;;;;;111495;1241;44514;-63
2023/07/05 02:42:41;;;;;;;;;9.25;9.00;27.60;53.40;;;;;;111723;1241;49093;-64
2023/07/05 02:45:08;;;;;;;;;9.33;8.33;27.60;53.60;;;;;;111495;1238;49894;-63
2023/07/05 02:47:35;;;;;;;;;10.00;10.00;27.60;53.50;;;;;;111683;1241;53478;-64
2023/07/05 02:50:03;;;;;;;;;9.00;8.00;27.60;53.50;;;;;;111704;1241;44479;-64
2023/07/05 02:52:29;;;;;;;;;11.00;10.00;27.60;53.40;;;;;;111678;1241;49216;-64
2023/07/05 02:54:56;;;;;;;;;9.75;8.75;27.60;53.40;;;;;;111437;1241;49273;-63
2023/07/05 02:57:23;;;;;;;;;12.25;11.00;27.60;53.50;;;;;;111591;1241;53816;-63
2023/07/05 02:59:50;;;;;;;;;11.25;11.00;27.60;53.50;;;;;;111516;1238;46238;-63
2023/07/05 03:02:17;;;;;;;;;9.33;9.00;27.50;53.40;;;;;;111589;1238;48785;-63
2023/07/05 03:04:46;;;;;;;;;11.00;10.00;27.60;53.40;;;;;;111474;1238;48977;-63
2023/07/05 03:07:13;;;;;;;;;8.50;8.00;27.50;53.40;;;;;;111568;1244;53641;-62
2023/07/05 03:09:40;;;;;;;;;11.00;10.00;27.50;53.60;;;;;;111671;1241;44677;-63
2023/07/05 03:12:08;;;;;;;;;12.00;11.00;27.60;53.40;;;;;;111680;1241;48805;-64
2023/07/05 03:14:34;;;;;;;;;11.25;10.25;27.50;53.60;;;;;;111437;1238;50370;-63
2023/07/05 03:17:01;;;;;;;;;12.00;11.00;27.50;53.40;;;;;;111566;1238;55460;-63
2023/07/05 03:19:28;;;;;;;;;11.25;9.25;27.50;53.40;;;;;;111630;1238;44555;-63
2023/07/05 03:21:55;;;;;;;;;10.00;9.00;27.50;53.30;;;;;;111487;1244;49215;-64
2023/07/05 03:24:22;;;;;;;;;10.00;9.00;27.50;53.40;;;;;;111209;1244;49729;-63
2023/07/05 03:26:52;;;;;;;;;12.00;10.25;27.50;53.40;;;;;;111647;1241;54901;-63
2023/07/05 03:29:19;;;;;;;;;11.75;9.00;27.50;53.40;;;;;;111682;1241;45048;-63
2023/07/05 03:31:46;;;;;;;;;10.25;9.25;27.50;53.40;;;;;;111686;1239;49271;-64
2023/07/05 03:34:15;;;;;;;;;10.25;9.25;27.50;53.40;;;;;;111572;1237;49299;-64
2023/07/05 03:36:42;;;;;;;;;9.50;9.25;27.50;53.40;;;;;;111606;1238;54883;-64
2023/07/05 03:39:09;;;;;;;;;10.00;9.00;27.50;53.40;;;;;;111699;1238;45172;-63
2023/07/05 03:41:36;;;;;;;;;12.00;11.00;27.50;53.50;;;;;;111575;1241;49475;-61
2023/07/05 03:44:03;;;;;;;;;10.00;9.00;27.50;53.50;;;;;;111426;1241;49694;-61
2023/07/05 03:46:30;;;;;;;;;9.33;8.67;27.40;53.50;;;;;;111464;1238;54124;-63
2023/07/05 03:48:57;;;;;;;;;12.00;11.00;27.50;53.40;;;;;;111526;1238;44769;-63
2023/07/05 03:51:25;;;;;;;;;11.00;10.25;27.50;53.60;;;;;;111581;1241;50563;-62
2023/07/05 03:53:55;;;;;;;;;10.67;9.67;27.50;53.30;;;;;;111652;1241;49616;-64
2023/07/05 03:56:23;;;;;;;;;11.00;10.00;27.50;53.50;;;;;;111458;1238;54680;-66
2023/07/05 03:58:50;;;;;;;;;9.50;9.25;27.50;53.40;;;;;;111684;1241;45654;-62
2023/07/05 04:01:20;;;;;;;;;11.33;10.67;27.50;53.30;;;;;;111719;1238;49344;-61
2023/07/05 04:03:50;;;;;;;;;11.00;9.00;27.50;53.30;;;;;;111578;1241;49091;-62
2023/07/05 04:06:17;;;;;;;;;10.67;9.67;27.40;53.20;;;;;;111471;1241;53484;-63
2023/07/05 04:08:44;;;;;;;;;11.00;9.75;27.40;53.20;;;;;;111586;1241;44286;-62
2023/07/05 04:11:11;;;;;;;;;9.50;9.00;27.50;53.30;;;;;;111669;1241;51010;-62
2023/07/05 04:13:38;;;;;;;;;10.25;9.25;27.50;53.80;;;;;;111678;1238;49671;-65
2023/07/05 04:16:14;;;;;;;;;10.50;9.00;27.50;53.30;;;;;;111675;1241;53853;-65
2023/07/05 04:18:42;;;;;;;;;9.00;8.00;27.50;53.30;;;;;;111552;1237;44286;-66
2023/07/05 04:21:10;;;;;;;;;9.75;9.00;27.50;53.30;;;;;;111708;1241;48504;-61
2023/07/05 04:23:38;;;;;;;;;10.75;9.50;27.50;53.30;;;;;;111688;1241;48893;-61
2023/07/05 04:26:08;;;;;;;;;9.25;8.25;27.50;53.50;;;;;;111518;1241;53572;-61
2023/07/05 04:28:36;;;;;;;;;12.00;11.00;27.50;53.30;;;;;;111681;1238;44964;-62
2023/07/05 04:31:04;;;;;;;;;10.00;9.00;27.40;53.20;;;;;;111479;1241;50216;-61
2023/07/05 04:33:31;;;;;;;;;9.25;8.25;27.50;53.30;;;;;;111674;1241;48984;-61
2023/07/05 04:36:00;;;;;;;;;9.25;8.50;27.50;52.90;;;;;;111535;1241;53545;-60
2023/07/05 04:38:27;;;;;;;;;9.67;9.00;27.40;53.20;;;;;;111369;1242;44402;-62
2023/07/05 04:40:56;;;;;;;;;8.75;8.00;27.50;53.30;;;;;;111668;1239;49728;-60
2023/07/05 04:43:27;;;;;;;;;10.33;9.33;27.40;53.20;;;;;;111642;1238;49247;-60
2023/07/05 04:45:56;;;;;;;;;31.50;29.25;27.50;53.30;;;;;;111791;1237;53377;-60
2023/07/05 04:48:25;;;;;;;;;28.75;25.00;27.40;53.60;;;;;;111670;1241;45020;-64
2023/07/05 04:50:54;;;;;;;;;21.00;19.00;27.50;53.50;;;;;;111758;1241;48936;-73
2023/07/05 04:53:22;;;;;;;;;25.75;21.00;27.50;53.50;;;;;;111353;1242;49903;-71
2023/07/05 04:55:54;;;;;;;;;25.50;21.75;27.50;53.50;;;;;;111452;1238;54733;-71
2023/07/05 04:58:22;;;;;;;;;24.50;21.50;27.40;53.50;;;;;;111404;1238;44600;-71
2023/07/05 05:00:49;;;;;;;;;28.25;21.50;27.50;53.60;;;;;;111610;1238;49661;-72
2023/07/05 05:03:21;;;;;;;;;25.67;22.67;27.50;53.60;;;;;;111359;1238;49680;-72
2023/07/05 05:05:51;;;;;;;;;22.00;19.25;27.40;53.60;;;;;;111589;1237;54065;-77
2023/07/05 05:08:20;;;;;;;;;23.75;20.50;27.40;53.60;;;;;;111729;1238;44986;-76
2023/07/05 05:10:55;;;;;;;;;23.75;22.25;27.40;53.60;;;;;;111586;1238;49207;-75
2023/07/05 05:13:23;;;;;;;;;20.25;18.25;27.40;53.80;;;;;;111527;1237;49630;-77
2023/07/05 05:15:50;;;;;;;;;21.67;19.00;27.40;53.60;;;;;;112123;1241;54745;-75
2023/07/05 05:18:17;;;;;;;;;23.50;22.00;27.50;53.70;;;;;;111812;1238;45663;-77
2023/07/05 05:20:45;;;;;;;;;21.67;18.67;27.50;53.60;;;;;;111687;1237;49191;-78
2023/07/05 05:23:12;;;;;;;;;24.25;20.25;27.50;53.70;;;;;;111502;1241;48816;-76
2023/07/05 05:25:44;;;;;;;;;19.75;17.25;27.50;53.50;;;;;;111356;1244;54604;-77
2023/07/05 05:28:12;;;;;;;;;20.67;18.33;27.50;53.60;;;;;;111369;1238;44375;-76
2023/07/05 05:30:40;;;;;;;;;21.50;21.00;27.50;53.50;;;;;;111658;1241;49073;-79
2023/07/05 05:33:07;;;;;;;;;24.00;20.00;27.50;53.50;;;;;;111680;1237;49615;-76
2023/07/05 05:35:35;;;;;;;;;25.00;20.67;27.60;53.50;;;;;;111639;1238;122402;-78
2023/07/05 05:38:03;;;;;;;;;20.00;18.50;27.60;53.60;;;;;;111694;1238;44526;-76
2023/07/05 05:40:33;;;;;;;;;21.75;18.25;27.60;53.50;;;;;;111739;1238;49716;-77
2023/07/05 05:43:00;;;;;;;;;26.00;22.00;27.60;53.70;;;;;;111632;1238;49753;-78
2023/07/05 05:45:27;;;;;;;;;22.00;18.00;27.60;53.50;;;;;;111585;1238;54111;-78
2023/07/05 05:47:54;;;;;;;;;19.75;18.25;27.60;53.70;;;;;;111765;1241;44874;-78
2023/07/05 05:50:22;;;;;;;;;20.00;16.75;27.60;53.50;;;;;;111774;1238;49680;-78
2023/07/05 05:52:49;;;;;;;;;21.75;20.50;27.60;53.50;;;;;;111423;1236;50081;-78
2023/07/05 05:55:17;;;;;;;;;23.25;20.75;27.60;53.50;;;;;;111753;1238;53254;-78
2023/07/05 05:57:45;;;;;;;;;20.25;17.75;27.60;53.40;;;;;;111652;1241;44700;-79
2023/07/05 06:00:12;;;;;;;;;23.25;19.25;27.70;53.70;;;;;;111366;1238;49859;-77
2023/07/05 06:02:39;;;;;;;;;24.00;20.00;27.70;53.40;;;;;;111669;1239;49282;-78
2023/07/05 06:05:08;;;;;;;;;20.25;19.50;27.70;53.40;;;;;;111370;1238;54015;-78
2023/07/05 06:07:35;;;;;;;;;18.25;16.25;27.70;53.40;;;;;;111541;1241;45192;-78
2023/07/05 06:10:02;;;;;;;;;20.33;19.00;27.70;53.40;;;;;;111489;1238;48827;-78
2023/07/05 06:12:29;;;;;;;;;23.25;20.75;27.70;53.40;;;;;;111705;1238;49800;-78
2023/07/05 06:14:56;;;;;;;;;19.75;17.75;27.70;53.30;;;;;;111709;1237;53976;-78
2023/07/05 06:17:23;;;;;;;;;24.00;21.00;27.70;53.40;;;;;;111746;1238;44745;-77
2023/07/05 06:19:50;;;;;;;;;18.00;15.75;27.70;53.30;;;;;;111689;1242;49821;-80
2023/07/05 06:22:17;;;;;;;;;19.33;18.67;27.80;53.40;;;;;;111677;1241;49491;-78
2023/07/05 06:24:44;;;;;;;;;19.67;17.00;27.70;53.30;;;;;;111547;1241;53924;-79
2023/07/05 06:27:11;;;;;;;;;21.75;18.50;27.80;53.40;;;;;;111699;1238;44973;-77
2023/07/05 06:29:38;;;;;;;;;18.25;16.00;27.80;53.60;;;;;;111691;1238;50143;-79
2023/07/05 06:32:05;;;;;;;;;21.67;19.67;27.80;53.30;;;;;;111690;1238;49393;-78
2023/07/05 06:34:32;;;;;;;;;19.75;17.50;27.80;53.20;;;;;;111710;1238;54148;-79
2023/07/05 06:36:59;;;;;;;;;21.00;18.00;27.80;53.20;;;;;;111513;1238;44871;-79
2023/07/05 06:39:26;;;;;;;;;23.25;18.25;27.90;53.30;;;;;;111646;1237;49801;-78
2023/07/05 06:41:53;;;;;;;;;18.00;16.00;27.80;53.40;;;;;;111489;1242;49412;-78
2023/07/05 06:44:20;;;;;;;;;21.25;18.25;27.90;53.30;;;;;;111732;1245;54474;-78
2023/07/05 06:46:47;;;;;;;;;19.25;16.50;27.90;53.80;;;;;;111522;1239;44204;-78
2023/07/05 06:49:14;;;;;;;;;18.25;16.00;27.90;53.20;;;;;;111660;1238;49156;-78
2023/07/05 06:51:40;;;;;;;;;19.00;17.00;27.90;53.40;;;;;;111510;1241;49561;-78
2023/07/05 06:54:07;;;;;;;;;19.25;17.00;27.90;53.20;;;;;;111705;1241;54701;-78
2023/07/05 06:56:35;;;;;;;;;18.00;15.33;27.90;53.20;;;;;;111769;1245;45433;-77
2023/07/05 06:59:03;;;;;;;;;15.25;15.25;28.00;53.20;;;;;;111764;1241;49019;-78
2023/07/05 07:01:30;;;;;;;;;21.25;17.25;28.00;53.20;;;;;;111785;1237;49998;-77
2023/07/05 07:03:56;;;;;;;;;20.00;17.00;28.00;53.20;;;;;;111534;1241;54715;-77
2023/07/05 07:06:23;;;;;;;;;20.25;17.50;28.00;53.20;;;;;;111553;1241;44774;-81
2023/07/05 07:08:50;;;;;;;;;20.33;17.67;28.00;53.20;;;;;;111701;1241;49114;-78
2023/07/05 07:11:17;;;;;;;;;18.25;16.25;28.00;52.70;;;;;;111778;1238;50835;-76
2023/07/05 07:13:44;;;;;;;;;19.75;19.00;28.00;53.10;;;;;;111805;1236;54107;-78
2023/07/05 07:16:14;;;;;;;;;19.25;18.00;28.10;53.40;;;;;;111854;1238;44912;-77
2023/07/05 07:18:50;;;;;;;;;19.00;16.50;28.10;53.20;;;;;;111811;1238;48865;-78
2023/07/05 07:21:19;;;;;;;;;20.75;17.25;28.10;53.40;;;;;;111574;1238;49724;-78
2023/07/05 07:23:47;;;;;;;;;16.33;15.67;28.20;53.20;;;;;;111671;1238;54580;-78
2023/07/05 07:26:20;;;;;;;;;17.50;16.50;28.20;53.80;;;;;;111875;1241;43997;-76
2023/07/05 07:28:48;;;;;;;;;18.00;17.00;28.20;53.40;;;;;;111837;1237;50007;-77
2023/07/05 07:31:21;;;;;;;;;21.00;18.00;28.20;53.20;;;;;;111861;1241;50489;-71
2023/07/05 07:33:50;;;;;;;;;21.25;20.25;28.30;53.10;;;;;;112419;1238;53925;-74
2023/07/05 07:36:23;;;;;;;;;19.00;18.00;28.30;53.60;;;;;;112570;1238;44267;-76
2023/07/05 07:38:52;;;;;;;;;16.25;15.75;28.30;53.50;;;;;;112182;1238;49080;-72
2023/07/05 07:41:23;;;;;;;;;17.00;13.50;28.40;53.40;;;;;;112051;1244;49278;-76
2023/07/05 07:43:51;;;;;;;;;19.00;17.50;28.40;53.30;;;;;;112374;1241;53618;-75
2023/07/05 07:46:20;;;;;;;;;18.75;17.00;28.50;53.30;;;;;;112333;1237;44471;-75
2023/07/05 07:48:50;;;;;;;;;19.00;16.00;28.50;53.30;;;;;;112271;1238;49190;-75
2023/07/05 07:51:17;;;;;;;;;21.67;20.00;28.50;53.30;;;;;;112001;1237;50655;-75
2023/07/05 07:53:45;;;;;;;;;19.00;16.00;28.60;53.30;;;;;;112199;1242;54048;-72
2023/07/05 07:56:14;;;;;;;;;18.67;17.33;28.60;53.20;;;;;;112353;1238;44682;-75
2023/07/05 07:58:42;;;;;;;;;17.50;16.50;28.60;53.20;;;;;;112168;1237;49379;-76
2023/07/05 08:01:13;;;;;;;;;23.00;19.00;28.70;53.40;;;;;;111915;1238;49265;-76
2023/07/05 08:03:41;;;;;;;;;19.00;18.00;28.70;53.20;;;;;;111757;1237;53656;-75
2023/07/05 08:06:08;;;;;;;;;23.50;20.75;28.70;53.30;;;;;;111750;1237;44928;-78
2023/07/05 08:08:37;;;;;;;;;20.00;17.50;28.70;53.50;;;;;;111729;1237;49189;-73
2023/07/05 08:11:05;;;;;;;;;19.00;18.75;28.70;53.40;;;;;;111693;1238;49812;-72
2023/07/05 08:13:32;;;;;;;;;17.50;17.50;28.70;53.40;;;;;;111733;1243;53787;-72
2023/07/05 08:15:59;;;;;;;;;22.25;20.50;28.60;53.40;;;;;;111432;1238;45129;-73
2023/07/05 08:18:26;;;;;;;;;22.50;21.00;28.60;53.60;;;;;;111687;1238;49388;-71
2023/07/05 08:20:53;;;;;;;;;20.75;19.75;28.60;53.60;;;;;;111419;1238;49103;-70
2023/07/05 08:23:20;;;;;;;;;20.67;19.00;28.60;53.60;;;;;;111644;1238;53800;-74
2023/07/05 08:25:54;;;;;;;;;23.50;22.00;28.60;53.70;;;;;;111736;1241;44914;-72
2023/07/05 08:28:26;;;;;;;;;20.00;18.00;28.60;53.70;;;;;;111664;1241;48947;-73
2023/07/05 08:31:00;;;;;;;;;20.00;20.00;28.60;53.80;;;;;;111323;1238;50158;-76
2023/07/05 08:33:28;;;;;;;;;21.00;20.00;28.60;54.00;;;;;;111785;1241;54082;-75
2023/07/05 08:36:34;;;;;;;;;22.33;18.67;28.60;53.90;;;;;;111769;1241;44706;-76
2023/07/05 08:39:05;;;;;;;;;21.25;19.00;28.60;53.90;;;;;;111685;1241;48989;-73
2023/07/05 08:41:41;;;;;;;;;24.75;24.00;28.60;53.90;;;;;;111697;1238;48864;-73
2023/07/05 08:44:33;;;;;;;;;20.00;19.00;28.60;54.00;;;;;;111523;1241;53877;-71
2023/07/05 08:47:03;;;;;;;;;21.75;20.25;28.60;54.00;;;;;;111314;1238;45491;-74
2023/07/05 08:49:39;;;;;;;;;21.00;19.25;28.60;54.20;;;;;;111477;1241;49722;-74
2023/07/05 08:52:19;;;;;;;;;17.00;15.75;28.60;54.20;;;;;;111699;1241;49717;-75
2023/07/05 08:54:49;;;;;;;;;24.50;19.50;28.60;54.10;;;;;;111586;1240;53965;-72
2023/07/05 08:57:20;;;;;;;;;22.50;19.75;28.60;54.20;;;;;;111539;1241;44068;-72
2023/07/05 08:59:51;;;;;;;;;22.25;21.50;28.60;54.30;;;;;;111330;1244;49369;-72
2023/07/05 09:02:19;;;;;;;;;22.00;20.00;28.70;54.30;;;;;;111610;1243;49008;-72
2023/07/05 09:04:49;;;;;;;;;20.00;20.00;28.60;54.40;;;;;;111895;1241;54063;-71
2023/07/05 09:07:35;;;;;;;;;21.50;18.00;28.70;54.30;;;;;;111771;1241;44336;-70
2023/07/05 09:10:32;;;;;;;;;21.50;19.75;28.70;54.30;;;;;;111534;1241;49576;-70
2023/07/05 09:13:37;;;;;;;;;21.25;19.25;28.70;54.30;;;;;;111585;1241;49799;-73
2023/07/05 09:16:21;;;;;;;;;23.00;20.33;28.70;54.50;;;;;;111291;1247;54813;-71
2023/07/05 09:19:09;;;;;;;;;22.75;21.25;28.70;54.70;;;;;;111545;1241;44770;-73
2023/07/05 09:21:41;;;;;;;;;24.25;23.00;28.80;54.40;;;;;;111514;1238;50181;-73
2023/07/05 09:24:26;;;;;;;;;22.75;20.75;28.80;54.60;;;;;;111822;1241;50236;-72
2023/07/05 09:27:16;;;;;;;;;24.33;21.00;28.80;54.50;;;;;;111795;1239;53890;-68
2023/07/05 09:30:02;;;;;;;;;22.00;19.00;28.80;54.60;;;;;;111467;1238;45167;-69
2023/07/05 09:32:40;;;;;;;;;21.50;20.25;28.80;54.80;;;;;;111673;1238;50573;-68
2023/07/05 09:35:20;;;;;;;;;22.25;21.75;28.80;54.60;;;;;;112106;1237;49729;-75
2023/07/05 09:38:08;;;;;;;;;24.00;20.25;28.80;54.80;;;;;;111882;1237;53812;-75
2023/07/05 09:40:40;;;;;;;;;23.00;20.00;28.80;54.70;;;;;;111748;1241;44267;-76
2023/07/05 09:43:14;;;;;;;;;20.67;18.00;28.80;54.60;;;;;;111769;1237;49149;-77
2023/07/05 09:45:41;;;;;;;;;20.25;19.00;28.90;54.70;;;;;;111896;1241;49198;-73
2023/07/05 09:48:10;;;;;;;;;23.00;21.00;28.80;54.80;;;;;;111678;1241;54658;-75
2023/07/05 09:50:44;;;;;;;;;20.25;18.75;28.90;54.50;;;;;;111720;1241;44507;-73
2023/07/05 09:53:23;;;;;;;;;24.50;23.50;28.90;55.00;;;;;;111744;1243;50740;-75
2023/07/05 09:56:11;;;;;;;;;22.00;19.67;28.80;54.80;;;;;;111645;1241;49210;-71
2023/07/05 09:58:39;;;;;;;;;21.67;19.00;28.90;55.10;;;;;;111457;1238;53923;-69
2023/07/05 10:01:12;;;;;;;;;21.75;19.25;28.90;54.80;;;;;;111702;1238;44124;-74
2023/07/05 10:03:53;;;;;;;;;22.00;20.75;28.90;54.60;;;;;;111302;1244;49375;-73
2023/07/05 10:06:24;;;;;;;;;24.00;21.50;28.90;54.80;;;;;;111750;1241;49240;-74
2023/07/05 10:08:53;;;;;;;;;20.00;18.50;28.90;54.70;;;;;;111560;1238;53809;-70
2023/07/05 10:11:33;;;;;;;;;20.00;19.00;28.90;54.70;;;;;;111705;1240;45396;-74
2023/07/05 10:14:02;;;;;;;;;21.00;19.00;28.90;54.70;;;;;;111354;1241;49145;-75
2023/07/05 10:17:05;;;;;;;;;21.50;20.50;28.90;54.80;;;;;;111929;1238;49003;-72
2023/07/05 10:19:48;;;;;;;;;21.25;19.50;28.90;55.00;;;;;;111398;1241;53427;-71
2023/07/05 10:22:27;;;;;;;;;22.00;20.75;28.90;54.80;;;;;;111543;1241;44724;-73
2023/07/05 10:25:01;;;;;;;;;19.67;18.00;29.00;54.60;;;;;;111723;1237;50550;-69
2023/07/05 10:27:32;;;;;;;;;22.00;19.67;29.00;54.50;;;;;;111621;1241;49625;-76
2023/07/05 10:30:14;;;;;;;;;19.00;16.00;29.00;54.80;;;;;;111736;1241;54568;-69
2023/07/05 10:32:42;;;;;;;;;23.75;21.00;29.10;54.50;;;;;;111623;1244;45033;-75
2023/07/05 10:35:23;;;;;;;;;23.50;22.25;29.10;54.60;;;;;;111700;1238;50112;-74
2023/07/05 10:37:51;;;;;;;;;20.00;19.00;29.00;54.50;;;;;;111515;1242;49222;-73
2023/07/05 10:40:19;;;;;;;;;19.00;18.00;29.10;54.80;;;;;;111680;1238;53944;-72
2023/07/05 10:42:50;;;;;;;;;20.75;19.00;29.10;54.90;;;;;;111566;1242;44549;-72
2023/07/05 10:45:20;;;;;;;;;18.00;17.25;29.10;54.60;;;;;;111534;1241;49256;-72
2023/07/05 10:47:52;;;;;;;;;20.00;19.00;29.10;54.70;;;;;;111708;1241;49695;-70
2023/07/05 10:50:30;;;;;;;;;19.00;19.00;29.10;54.50;;;;;;111730;1240;53911;-71
2023/07/05 10:53:02;;;;;;;;;16.67;15.00;29.10;54.80;;;;;;111678;1241;45857;-73
2023/07/05 10:55:45;;;;;;;;;21.75;18.00;29.10;54.40;;;;;;111240;1239;50437;-73
2023/07/05 10:58:15;;;;;;;;;20.00;18.00;29.10;54.40;;;;;;111698;1238;49876;-72
2023/07/05 11:00:57;;;;;;;;;17.50;17.00;29.10;54.30;;;;;;111666;1238;53808;-70
2023/07/05 11:03:40;;;;;;;;;17.25;16.50;29.20;54.60;;;;;;111618;1241;45244;-71
2023/07/05 11:06:08;;;;;;;;;21.00;20.00;29.10;54.20;;;;;;111686;1238;48898;-73
2023/07/05 11:08:39;;;;;;;;;20.00;19.25;29.20;54.30;;;;;;111775;1237;49544;-71
2023/07/05 11:11:28;;;;;;;;;21.75;21.00;29.30;54.40;;;;;;111716;1241;54129;-70
2023/07/05 11:14:00;;;;;;;;;18.00;17.00;29.30;54.30;;;;;;111698;1236;45644;-73
2023/07/05 11:16:29;;;;;;;;;17.00;15.75;29.20;54.30;;;;;;112065;1237;49249;-73
2023/07/05 11:19:01;;;;;;;;;19.00;18.00;29.30;54.40;;;;;;111737;1238;49787;-72
2023/07/05 11:21:49;;;;;;;;;20.25;19.00;29.30;53.60;;;;;;111664;1243;54582;-71
2023/07/05 11:24:24;;;;;;;;;21.00;20.00;29.30;53.80;;;;;;111632;1241;44635;-71
2023/07/05 11:26:51;;;;;;;;;19.00;18.00;29.30;53.90;;;;;;111341;1244;49472;-70
2023/07/05 11:29:24;;;;;;;;;20.00;18.00;29.30;53.80;;;;;;111702;1241;49549;-71
2023/07/05 11:31:51;;;;;;;;;18.75;17.75;29.30;53.80;;;;;;111743;1238;53565;-69
2023/07/05 11:34:21;;;;;;;;;21.25;19.75;29.30;54.00;;;;;;111640;1241;44694;-72
2023/07/05 11:37:12;;;;;;;;;20.67;18.33;29.30;53.80;;;;;;111529;1246;49787;-70
2023/07/05 11:39:42;;;;;;;;;19.00;18.00;29.30;53.80;;;;;;111214;1244;49928;-71
2023/07/05 11:42:15;;;;;;;;;19.00;18.00;29.30;53.80;;;;;;111682;1241;54150;-75
2023/07/05 11:45:04;;;;;;;;;16.25;16.00;29.30;54.10;;;;;;112120;1237;44481;-76
2023/07/05 11:47:34;;;;;;;;;20.25;18.75;29.30;54.00;;;;;;111577;1241;50014;-74
2023/07/05 11:50:07;;;;;;;;;18.00;17.00;29.30;53.90;;;;;;111824;1241;50717;-75
2023/07/05 11:52:38;;;;;;;;;19.50;17.75;29.30;53.90;;;;;;111724;1237;53352;-72
2023/07/05 11:55:23;;;;;;;;;20.00;19.00;29.30;53.90;;;;;;111790;1237;45219;-72
2023/07/05 11:58:09;;;;;;;;;21.25;19.00;29.30;54.00;;;;;;111852;1241;48886;-72
2023/07/05 12:00:44;;;;;;;;;19.00;19.00;29.30;53.90;;;;;;111609;1239;49061;-71
2023/07/05 12:03:16;;;;;;;;;20.75;19.00;29.40;53.90;;;;;;111507;1244;53755;-71
2023/07/05 12:05:43;;;;;;;;;20.67;20.00;29.40;53.80;;;;;;111827;1238;44259;-75
2023/07/05 12:08:18;;;;;;;;;24.25;21.75;29.40;53.30;;;;;;111361;1244;49665;-74
2023/07/05 12:10:58;;;;;;;;;23.00;22.00;29.40;53.00;;;;;;111808;1241;50290;-73
2023/07/05 12:13:31;;;;;;;;;22.75;22.25;29.40;53.00;;;;;;111846;1241;54006;-76
2023/07/05 12:15:58;;;;;;;;;21.00;20.00;29.40;53.80;;;;;;111776;1238;44766;-69
2023/07/05 12:18:28;;;;;;;;;21.50;19.25;29.40;54.30;;;;;;111538;1242;49368;-69
2023/07/05 12:20:58;;;;;;;;;19.00;18.25;29.40;54.30;;;;;;111643;1238;49188;-75
2023/07/05 12:23:29;;;;;;;;;21.00;19.00;29.40;54.00;;;;;;111549;1241;53702;-76
2023/07/05 12:25:57;;;;;;;;;23.00;21.00;29.40;54.20;;;;;;111598;1238;45291;-75
2023/07/05 12:28:27;;;;;;;;;20.67;19.00;29.40;54.50;;;;;;111646;1238;49256;-76
2023/07/05 12:30:56;;;;;;;;;20.00;18.00;29.40;54.80;;;;;;111976;1238;49286;-77
2023/07/05 12:33:28;;;;;;;;;21.75;20.00;29.40;54.70;;;;;;111815;1239;54232;-75
2023/07/05 12:36:05;;;;;;;;;19.00;18.50;29.40;54.70;;;;;;111808;1238;44299;-75
2023/07/05 12:38:33;;;;;;;;;19.00;17.75;29.30;54.50;;;;;;111436;1244;49062;-76
2023/07/05 12:41:00;;;;;;;;;17.75;17.00;29.30;54.40;;;;;;111814;1238;49656;-74